• Join FlightAware (Why Join?)
  • Login
  • US Flag 
04:57AM EDT


 

Airport Tracker/Info


-or-


 

Live Flight TrackerFlight Track Log ✈ AAY655 ✈ 19-Mar-2014 ✈ KIAG - KSFB

Flight Track Log - Related Links

Times and Time Zones

All times are in EDT time to prevent confusion due to time zone crossing. See the AAY655 flight status page for this flight to view local times or setup timezone preferences in your user account.

Time Position Orientation Groundspeed Altitude Reporting Facility
EDT Latitude Longitude Course Direction KTS MPH feet Rate Location/Type
07:34PM 43.1167 -78.9667 334° Northwest 161 185 900  Level Buffalo TRACON
07:35PM 43.1667 -79.0000 334° Northwest 271 312 3,800 2,520 Climbing Buffalo TRACON
07:36PM 43.1694 -78.9083 88° East 264 304 6,400 2,280 Climbing Cleveland Center
07:37PM 43.0981 -78.9006 175° South 256 295 8,600 1,860 Climbing Cleveland Center
07:38PM 43.0342 -78.9153 190° South 258 297 10,300 1,980 Climbing Cleveland Center
07:39PM 42.9519 -78.9342 190° South 294 338 12,700 1,980 Climbing Cleveland Center
07:40PM 42.8464 -78.9717 195° South 325 374 14,400 1,800 Climbing Cleveland Center
07:41PM 42.7519 -79.0056 195° South 347 399 16,500 1,860 Climbing Cleveland Center
07:42PM 42.6572 -79.0506 199° South 357 411 18,300 1,560 Climbing Cleveland Center
07:43PM 42.5558 -79.0953 198° South 378 435 19,800 1,620 Climbing Cleveland Center
07:44PM 42.4503 -79.1383 197° South 394 453 21,700 1,680 Climbing Cleveland Center
07:45PM 42.3436 -79.1847 198° South 400 460 23,300 2,160 Climbing Cleveland Center
07:46PM 42.2169 -79.2464 200° South 406 467 26,200 2,160 Climbing Cleveland Center
07:47PM 42.1142 -79.2931 199° South 394 453 27,800 1,320 Climbing Cleveland Center
07:48PM 42.0108 -79.3389 198° South 394 453 29,000 1,080 Climbing Cleveland Center
07:49PM 41.9069 -79.3833 198° South 394 453 30,100 1,140 Climbing Cleveland Center
07:50PM 41.8025 -79.4328 199° South 396 456 31,400 900 Climbing Cleveland Center
07:51PM 41.6800 -79.4897 199° South 393 452 32,000 240 Climbing Cleveland Center
07:53PM 41.5778 -79.5342 198° South 393 452 32,000  Level Cleveland Center
07:54PM 41.4736 -79.5778 197° South 393 452 32,000  Level Cleveland Center
07:55PM 41.3800 -79.6200 199° South 393 452 32,000  Level Cleveland Center
07:56PM 41.2703 -79.6700 199° South 392 451 32,000  Level Cleveland Center
07:57PM 41.1478 -79.7225 198° South 390 449 32,000  Level Cleveland Center
07:58PM 41.0539 -79.7631 198° South 385 443 32,000  Level Cleveland Center
07:59PM 40.9536 -79.8061 198° South 381 438 32,000  Level Cleveland Center
08:00PM 40.8544 -79.8506 199° South 381 438 32,000  Level Cleveland Center
08:01PM 40.7558 -79.8933 198° South 375 432 32,000  Level Cleveland Center
08:02PM 40.6572 -79.9347 198° South 373 429 32,000  Level Cleveland Center
08:03PM 40.5381 -79.9861 198° South 373 429 32,000  Level Cleveland Center
08:04PM 40.4414 -80.0283 198° South 371 427 32,000  Level Cleveland Center
08:05PM 40.3444 -80.0700 198° South 364 419 32,000  Level Cleveland Center
08:06PM 40.2417 -80.1136 198° South 362 417 32,000 300 Level Cleveland Center
08:07PM 40.1444 -80.1544 198° South 363 418 32,700 480 Climbing Cleveland Center
08:08PM 40.0475 -80.1978 199° South 364 419 33,000 120 Climbing Cleveland Center
08:09PM 39.9514 -80.2378 198° South 365 420 33,000 60 Level Cleveland Center
08:10PM 39.8531 -80.2786 198° South 366 421 33,200 420 Climbing Cleveland Center
08:11PM 39.7536 -80.3169 197° South 372 428 33,900 360 Climbing Cleveland Center
08:12PM 39.6364 -80.3681 199° South 371 427 34,000  Climbing Cleveland Center
08:13PM 39.5381 -80.4100 198° South 372 428 34,000  Level Cleveland Center
08:14PM 39.4542 -80.4456 198° South 372 428 34,000  Level Indianapolis Center
08:15PM 39.3339 -80.4944 197° South 374 430 34,000  Level Indianapolis Center
08:16PM 39.2347 -80.5350 198° South 374 430 34,000  Level Indianapolis Center
08:17PM 39.1344 -80.5778 198° South 374 430 34,000  Level Indianapolis Center
08:18PM 39.0361 -80.6181 198° South 374 430 34,000  Level Indianapolis Center
08:19PM 38.9361 -80.6581 197° South 374 430 34,000  Level Indianapolis Center
08:20PM 38.8342 -80.6989 197° South 376 433 34,000  Level Indianapolis Center
08:21PM 38.7342 -80.7400 198° South 378 435 34,000  Level Indianapolis Center
08:22PM 38.6336 -80.7817 198° South 377 434 34,000  Level Indianapolis Center
08:23PM 38.5328 -80.8222 197° South 377 434 34,000  Level Indianapolis Center
08:24PM 38.4339 -80.8625 198° South 377 434 34,000  Level Indianapolis Center
08:25PM 38.3150 -80.9094 197° South 374 430 34,000  Level Indianapolis Center
08:26PM 38.2167 -80.9494 198° South 373 429 34,000  Level Indianapolis Center
08:27PM 38.1167 -80.9900 198° South 373 429 34,000  Level Indianapolis Center
08:28PM 38.0192 -81.0294 198° South 372 428 34,000  Level Indianapolis Center
08:29PM 37.9217 -81.0658 196° South 365 420 34,000  Level Indianapolis Center
08:31PM 37.8242 -81.1042 197° South 365 420 34,000  Level Indianapolis Center
08:32PM 37.7103 -81.1269 189° South 393 452 34,000  Level Indianapolis Center
08:33PM 37.6011 -81.1222 178° South 405 466 34,000  Level Indianapolis Center
08:34PM 37.4922 -81.1156 177° South 405 466 34,000  Level Indianapolis Center
08:35PM 37.3822 -81.1139 179° South 405 466 34,000  Level Indianapolis Center
08:36PM 37.2489 -81.1131 180° South 406 467 34,000  Level Indianapolis Center
08:37PM 37.1372 -81.1117 179° South 409 471 34,000  Level Indianapolis Center
08:38PM 37.0267 -81.1100 179° South 409 471 34,000  Level Indianapolis Center
08:39PM 36.9147 -81.1058 178° South 410 472 34,000  Level Indianapolis Center
08:40PM 36.7828 -81.1039 179° South 409 471 34,000  Level Indianapolis Center
08:41PM 36.6694 -81.1031 180° South 411 473 34,000  Level Indianapolis Center
08:42PM 36.5561 -81.1017 179° South 414 476 34,000  Level Indianapolis Center
08:43PM 36.4436 -81.0981 179° South 415 478 34,000  Level Indianapolis Center
08:44PM 36.3081 -81.0958 179° South 415 478 34,000  Level Indianapolis Center
08:45PM 36.1711 -81.0936 179° South 421 484 34,000  Level Atlanta Center
08:46PM 36.0522 -81.0931 180° South 421 484 34,000  Level Atlanta Center
08:47PM 35.9269 -81.0897 179° South 421 484 34,000  Level Atlanta Center
08:48PM 35.8119 -81.0864 179° South 421 484 34,000  Level Atlanta Center
08:49PM 35.6953 -81.0828 179° South 421 484 34,000  Level Atlanta Center
08:50PM 35.5742 -81.0794 179° South 421 484 34,000  Level Atlanta Center
08:51PM 35.4572 -81.0811 181° South 426 490 34,000  Level Atlanta Center
08:52PM 35.3425 -81.0828 181° South 421 484 34,000  Level Atlanta Center
08:53PM 35.2236 -81.0794 179° South 416 479 34,000  Level Atlanta Center
08:55PM 34.9622 -81.0739 179° South 424 488 34,000  Level Jacksonville Center
08:56PM 34.8456 -81.0714 179° South 419 482 34,000  Level Jacksonville Center
08:57PM 34.7286 -81.0739 181° South 419 482 34,000  Level Jacksonville Center
08:58PM 34.6119 -81.0711 179° South 419 482 34,000  Level Jacksonville Center
08:59PM 34.4950 -81.0686 179° South 419 482 34,000  Level Jacksonville Center
09:00PM 34.3739 -81.0636 178° South 424 488 34,000  Level Jacksonville Center
09:01PM 34.2592 -81.0586 178° South 424 488 34,000  Level Jacksonville Center
09:02PM 34.1422 -81.0583 180° South 419 482 34,000  Level Jacksonville Center
09:03PM 34.0192 -81.0586 180° South 430 495 34,000  Level Jacksonville Center
09:04PM 33.8981 -81.0536 178° South 435 501 34,000  Level Jacksonville Center
09:05PM 33.7814 -81.0586 182° South 435 501 34,000  Level Jacksonville Center
09:06PM 33.6750 -81.0733 187° South 435 501 34,000  Level Jacksonville Center
09:07PM 33.5564 -81.0856 185° South 430 495 34,000  Level Jacksonville Center
09:08PM 33.4397 -81.0931 183° South 430 495 34,000  Level Jacksonville Center
09:09PM 33.3208 -81.1028 184° South 430 495 34,000  Level Jacksonville Center
09:10PM 33.2039 -81.1125 184° South 425 489 34,000  Level Jacksonville Center
09:11PM 33.0853 -81.1250 185° South 425 489 34,000  Level Jacksonville Center
09:12PM 32.9664 -81.1347 184° South 425 489 34,000  Level Jacksonville Center
09:13PM 32.8475 -81.1419 183° South 425 489 34,000  Level Jacksonville Center
09:14PM 32.7308 -81.1517 184° South 425 489 34,000  Level Jacksonville Center
09:15PM 32.6036 -81.1639 185° South 425 489 34,000  Level Jacksonville Center
09:16PM 32.4972 -81.1733 184° South 425 489 34,000  Level Jacksonville Center
09:17PM 32.3742 -81.1806 183° South 425 489 34,000  Level Jacksonville Center
09:18PM 32.2553 -81.1878 183° South 430 495 34,000  Level Jacksonville Center
09:19PM 32.1364 -81.1997 185° South 430 495 34,000  Level Jacksonville Center
09:20PM 32.0153 -81.1969 179° South 436 502 34,000  Level Jacksonville Center
09:21PM 31.8817 -81.1897 177° South 441 507 34,000  Level Jacksonville Center
09:22PM 31.7772 -81.1989 184° South 431 496 34,000  Level Jacksonville Center
09:23PM 31.6439 -81.2208 188° South 431 496 34,000 -60 Level Jacksonville Center
09:24PM 31.5253 -81.2400 188° South 431 496 33,900 -360 Descending Jacksonville Center
09:25PM 31.4211 -81.2567 188° South 425 489 33,300 -660 Descending Jacksonville Center
09:26PM 31.2878 -81.2783 188° South 430 495 32,600 -660 Descending Jacksonville Center
09:27PM 31.1711 -81.2972 188° South 430 495 32,000 -900 Descending Jacksonville Center
09:28PM 31.0522 -81.3189 189° South 430 495 30,800 -1,380 Descending Jacksonville Center
09:29PM 30.9314 -81.3400 189° South 430 495 29,300 -1,440 Descending Jacksonville Center
09:30PM 30.8106 -81.3614 189° South 430 495 28,000 -660 Descending Jacksonville Center
09:31PM 30.7000 -81.3561 178° South 436 502 28,000  Level Jacksonville Center
09:32PM 30.5700 -81.3317 171° South 455 524 28,000 -540 Level Jacksonville Center
09:33PM 30.4444 -81.3047 170° South 466 536 27,000 -1,080 Descending Jacksonville Center
09:34PM 30.3211 -81.2850 172° South 466 536 25,900 -1,440 Descending Jacksonville Center
09:35PM 30.1997 -81.2678 173° South 461 531 24,200 -2,040 Descending Jacksonville Center
09:36PM 30.0828 -81.2506 173° South 442 509 21,900 -2,340 Descending Jacksonville Center
09:37PM 29.9675 -81.2286 171° South 432 497 19,600 -2,160 Descending Jacksonville Center
09:38PM 29.8589 -81.2114 172° South 415 478 17,600 -2,160 Descending Jacksonville Center
09:39PM 29.8272 -81.2022 166° South 384 442 17,000 -2,100 Descending Jacksonville Center
09:39PM 29.7603 -81.1914 172° South 389 448 15,500 -2,160 Descending Jacksonville Center
09:39PM 29.7311 -81.1897 177° South 368 423 15,100 -1,800 Descending Jacksonville Center
09:40PM 29.6558 -81.1767 171° South 384 442 13,700 -1,680 Descending Jacksonville Center
09:40PM 29.6308 -81.1722 171° South 366 421 13,400 -1,740 Descending Jacksonville Center
09:41PM 29.5575 -81.1592 171° South 373 429 12,000 -1,680 Descending Jacksonville Center
09:42PM 29.5303 -81.1525 168° South 365 420 11,700 -1,440 Descending Jacksonville Center
09:42PM 29.4467 -81.1422 174° South 368 423 10,600 -1,140 Descending Jacksonville Center
09:43PM 29.4300 -81.1447 187° South 356 410 10,600 -540 Level Jacksonville Center
09:43PM 29.3528 -81.1508 184° South 347 399 10,100 -480 Descending Jacksonville Center
09:43PM 29.3464 -81.1511 182° South 324 373 10,200 -1,020 Climbing Jacksonville Center
09:44PM 29.2694 -81.1547 182° South 310 357 9,100 -1,320 Descending Jacksonville Center
09:45PM 29.1881 -81.1611 184° South 304 350 7,700 -1,500 Descending Jacksonville Center
09:46PM 29.1086 -81.1625 181° South 287 330 6,200 -1,440 Descending Jacksonville Center
09:47PM 29.0336 -81.1683 184° South 287 330 4,900 -1,200 Descending Jacksonville Center
09:48PM 28.9608 -81.1864 192° South 282 325 3,900 -720 Descending Jacksonville Center
09:50PM 28.8833 -81.2500 216° Southwest 197 227 3,200 -720 Descending Orlando TRACON
09:51PM 28.8500 -81.2833 221° Southwest 174 200 2,200 -900 Descending Orlando TRACON
09:52PM 28.8000 -81.3167 210° Southwest 159 183 1,400 -840 Descending Orlando TRACON
09:54PM 28.7667 -81.2333 199° South  Level FlightAware Approximate
10:01PM 28.7770 -81.2349 199° South  Level Estimated
10:02PM 28.7770 -81.2349 199° South  Level Estimated
10:03PM 28.7770 -81.2349 199° South  Level Estimated
10:04PM 28.7770 -81.2349 199° South  Level Estimated